createdAt,value
2022-09-21T00:01:10.999Z,2.30
2022-09-21T00:03:41.263Z,2.30
2022-09-21T00:06:10.824Z,2.40
2022-09-21T00:08:39.521Z,2.37
2022-09-21T00:11:08.645Z,2.50
2022-09-21T00:13:38.740Z,2.30
2022-09-21T00:16:07.885Z,2.50
2022-09-21T00:18:36.632Z,2.13
2022-09-21T00:21:08.453Z,2.50
2022-09-21T00:23:37.384Z,2.13
2022-09-21T00:26:07.177Z,2.03
2022-09-21T00:28:35.997Z,2.20
2022-09-21T00:31:07.202Z,2.40
2022-09-21T00:33:36.492Z,2.40
2022-09-21T00:36:05.784Z,1.97
2022-09-21T00:38:34.533Z,2.43
2022-09-21T00:41:03.392Z,2.37
2022-09-21T00:43:32.023Z,2.10
2022-09-21T00:46:03.560Z,2.00
2022-09-21T00:48:34.371Z,2.07
2022-09-21T00:51:05.105Z,2.10
2022-09-21T00:53:33.858Z,2.07
2022-09-21T00:56:04.381Z,2.10
2022-09-21T00:58:35.629Z,2.30
2022-09-21T01:01:04.224Z,2.10
2022-09-21T01:03:34.157Z,2.40
2022-09-21T01:06:03.017Z,2.17
2022-09-21T01:08:33.501Z,2.80
2022-09-21T01:11:13.833Z,2.20
2022-09-21T01:13:47.476Z,2.20
2022-09-21T01:16:18.506Z,2.10
2022-09-21T01:18:53.092Z,2.00
2022-09-21T01:21:22.955Z,2.00
2022-09-21T01:24:24.651Z,2.23
2022-09-21T01:27:10.049Z,2.20
2022-09-21T01:29:42.089Z,2.17
2022-09-21T01:32:13.156Z,1.97
2022-09-21T01:34:45.580Z,2.10
2022-09-21T01:37:16.438Z,2.10
2022-09-21T01:39:47.100Z,1.90
2022-09-21T01:42:15.908Z,1.80
2022-09-21T01:44:47.168Z,1.97
2022-09-21T01:47:16.228Z,1.97
2022-09-21T01:49:46.458Z,1.80
2022-09-21T01:52:16.783Z,2.20
2022-09-21T01:54:47.071Z,2.20
2022-09-21T01:57:18.483Z,2.00
2022-09-21T01:59:52.602Z,2.13
2022-09-21T02:02:22.650Z,2.00
2022-09-21T02:04:51.781Z,2.30
2022-09-21T02:07:20.635Z,2.50
2022-09-21T02:09:49.800Z,2.20
2022-09-21T02:12:19.356Z,1.93
2022-09-21T02:14:50.083Z,2.10
2022-09-21T02:17:25.904Z,2.00
2022-09-21T02:19:57.409Z,2.00
2022-09-21T02:22:30.812Z,1.90
2022-09-21T02:25:05.924Z,2.57
2022-09-21T02:27:37.873Z,2.30
2022-09-21T02:30:09.753Z,2.60
2022-09-21T02:32:42.464Z,2.50
2022-09-21T02:35:17.127Z,3.03
2022-09-21T02:37:48.984Z,2.40
2022-09-21T02:40:23.869Z,2.70
2022-09-21T02:42:55.531Z,3.33
2022-09-21T02:45:27.735Z,2.93
2022-09-21T02:47:59.687Z,2.80
2022-09-21T02:50:32.913Z,2.77
2022-09-21T02:53:02.751Z,2.63
2022-09-21T02:55:31.868Z,2.53
2022-09-21T02:58:01.901Z,3.10
2022-09-21T03:00:31.875Z,3.10
2022-09-21T03:03:00.445Z,2.80
2022-09-21T03:05:29.412Z,2.60
2022-09-21T03:07:58.875Z,2.77
2022-09-21T03:10:27.430Z,2.27
2022-09-21T03:12:59.261Z,2.40
2022-09-21T03:15:27.938Z,2.63
2022-09-21T03:17:57.925Z,2.83
2022-09-21T03:20:26.496Z,2.67
2022-09-21T03:22:55.065Z,2.50
2022-09-21T03:25:23.616Z,2.60
2022-09-21T03:27:53.690Z,2.17
2022-09-21T03:30:22.428Z,2.30
2022-09-21T03:32:51.243Z,2.47
2022-09-21T03:35:21.531Z,2.07
2022-09-21T03:37:50.562Z,2.20
2022-09-21T03:40:19.438Z,2.40
2022-09-21T03:42:48.074Z,2.40
2022-09-21T03:45:16.653Z,2.50
2022-09-21T03:47:45.239Z,2.97
2022-09-21T03:50:13.783Z,2.97
2022-09-21T03:52:43.756Z,2.77
2022-09-21T03:55:12.280Z,2.70
2022-09-21T03:57:40.815Z,2.67
2022-09-21T04:00:11.537Z,2.70
2022-09-21T04:02:40.914Z,2.50
2022-09-21T04:05:10.112Z,2.60
2022-09-21T04:07:38.736Z,2.23
2022-09-21T04:10:09.697Z,2.30
2022-09-21T04:12:38.244Z,2.57
2022-09-21T04:15:07.488Z,2.40
2022-09-21T04:17:36.032Z,2.30
2022-09-21T04:20:05.053Z,2.43
2022-09-21T04:22:33.599Z,2.07
2022-09-21T04:25:02.165Z,2.57
2022-09-21T04:27:32.098Z,2.37
2022-09-21T04:30:00.643Z,2.33
2022-09-21T04:32:29.192Z,2.40
2022-09-21T04:34:58.044Z,2.70
2022-09-21T04:37:26.565Z,2.93
2022-09-21T04:39:55.160Z,2.30
2022-09-21T04:42:24.114Z,2.30
2022-09-21T04:44:54.082Z,2.30
2022-09-21T04:47:23.641Z,2.43
2022-09-21T04:49:53.320Z,2.40
2022-09-21T04:52:22.187Z,2.50
2022-09-21T04:54:51.033Z,2.40
2022-09-21T04:57:19.599Z,2.23
2022-09-21T04:59:48.143Z,2.10
2022-09-21T05:02:18.036Z,2.27
2022-09-21T05:04:50.785Z,2.23
2022-09-21T05:07:19.976Z,2.20
2022-09-21T05:10:03.017Z,1.90
2022-09-21T05:12:31.824Z,2.33
2022-09-21T05:15:00.629Z,2.73
2022-09-21T05:17:30.588Z,2.60
2022-09-21T05:19:59.095Z,2.63
2022-09-21T05:22:27.888Z,2.70
2022-09-21T05:24:56.617Z,2.57
2022-09-21T05:27:25.161Z,2.60
2022-09-21T05:29:54.110Z,2.57
2022-09-21T05:32:25.919Z,2.80
2022-09-21T05:34:59.963Z,2.33
2022-09-21T05:37:35.570Z,2.30
2022-09-21T05:40:04.597Z,2.30
2022-09-21T05:42:33.627Z,2.80
2022-09-21T05:45:02.512Z,2.40
2022-09-21T05:47:38.950Z,2.40
2022-09-21T05:50:17.500Z,2.90
2022-09-21T05:52:49.365Z,2.53
2022-09-21T05:55:26.682Z,2.60
2022-09-21T05:58:00.106Z,2.87
2022-09-21T06:00:31.801Z,2.80
2022-09-21T06:03:16.876Z,3.07
2022-09-21T06:05:47.561Z,2.93
2022-09-21T06:08:16.172Z,2.50
2022-09-21T06:10:45.236Z,2.83
2022-09-21T06:13:13.800Z,2.87
2022-09-21T06:15:42.787Z,3.30
2022-09-21T06:18:16.929Z,3.70
2022-09-21T06:20:47.838Z,3.63
2022-09-21T06:23:16.429Z,3.43
2022-09-21T06:25:45.989Z,3.50
2022-09-21T06:28:14.724Z,3.70
2022-09-21T06:30:44.943Z,3.50
2022-09-21T06:33:14.357Z,3.43
2022-09-21T06:35:42.971Z,3.50
2022-09-21T06:38:12.860Z,4.03
2022-09-21T06:40:41.489Z,3.70
2022-09-21T06:43:10.123Z,3.77
2022-09-21T06:45:38.691Z,4.37
2022-09-21T06:48:07.204Z,4.40
2022-09-21T06:50:35.794Z,3.70
2022-09-21T06:53:04.486Z,3.83
2022-09-21T06:55:34.720Z,5.10
2022-09-21T06:58:03.324Z,5.70
2022-09-21T07:00:32.143Z,4.37
2022-09-21T07:03:00.895Z,4.03
2022-09-21T07:05:29.413Z,4.53
2022-09-21T07:08:01.186Z,4.20
2022-09-21T07:10:29.823Z,4.60
2022-09-21T07:13:03.466Z,5.03
2022-09-21T07:15:32.110Z,4.53
2022-09-21T07:18:11.908Z,4.87
2022-09-21T07:20:41.028Z,4.27
2022-09-21T07:23:16.903Z,5.80
2022-09-21T07:25:45.784Z,5.70
2022-09-21T07:28:15.671Z,5.20
2022-09-21T07:30:44.245Z,4.93
2022-09-21T07:33:12.935Z,5.00
2022-09-21T07:35:41.435Z,5.93
2022-09-21T07:38:09.980Z,5.10
2022-09-21T07:40:38.595Z,5.07
2022-09-21T07:43:07.197Z,5.53
2022-09-21T07:45:37.111Z,5.40
2022-09-21T07:48:05.675Z,5.10
2022-09-21T07:50:34.715Z,5.93
2022-09-21T07:53:03.501Z,4.80
2022-09-21T07:55:32.372Z,5.53
2022-09-21T07:58:18.611Z,4.97
2022-09-21T08:00:48.622Z,5.37
2022-09-21T08:03:17.242Z,5.90
2022-09-21T08:05:48.204Z,5.90
2022-09-21T08:08:17.034Z,5.07
2022-09-21T08:10:46.063Z,5.53
2022-09-21T08:13:14.581Z,5.80
2022-09-21T08:15:49.911Z,5.23
2022-09-21T08:18:20.243Z,4.83
2022-09-21T08:20:55.195Z,5.40
2022-09-21T08:23:23.796Z,5.20
2022-09-21T08:25:52.307Z,5.37
2022-09-21T08:28:20.844Z,3.30
2022-09-21T08:30:49.350Z,3.17
2022-09-21T08:33:17.905Z,3.87
2022-09-21T08:35:54.415Z,3.57
2022-09-21T08:38:23.069Z,3.57
2022-09-21T08:40:52.915Z,3.90
2022-09-21T08:43:27.157Z,3.83
2022-09-21T08:45:56.138Z,3.90
2022-09-21T08:48:29.952Z,4.03
2022-09-21T08:51:03.693Z,4.43
2022-09-21T08:53:33.884Z,4.10
2022-09-21T08:56:02.842Z,4.20
2022-09-21T08:58:31.996Z,3.80
2022-09-21T09:01:08.885Z,3.80
2022-09-21T09:03:43.960Z,3.50
2022-09-21T09:06:18.290Z,3.13
2022-09-21T09:09:01.227Z,3.03
2022-09-21T09:11:37.597Z,3.10
2022-09-21T09:14:13.423Z,2.93
2022-09-21T09:16:45.606Z,2.40
2022-09-21T09:19:18.832Z,2.80
2022-09-21T09:21:48.810Z,2.73
2022-09-21T09:24:19.746Z,2.23
2022-09-21T09:26:50.969Z,2.57
2022-09-21T09:29:23.531Z,1.90
2022-09-21T09:31:55.425Z,1.90
2022-09-21T09:34:26.322Z,2.30
2022-09-21T09:36:59.473Z,1.87
2022-09-21T09:39:30.186Z,1.90
2022-09-21T09:42:04.195Z,1.73
2022-09-21T09:44:41.428Z,2.37
2022-09-21T09:47:17.673Z,2.00
2022-09-21T09:49:58.836Z,2.30
2022-09-21T09:52:28.755Z,2.70
2022-09-21T09:54:57.324Z,2.70
2022-09-21T09:57:29.033Z,2.70
2022-09-21T10:00:01.153Z,2.13
2022-09-21T10:02:30.795Z,2.17
2022-09-21T10:05:05.768Z,1.97
2022-09-21T10:07:39.937Z,1.80
2022-09-21T10:10:25.276Z,1.87
2022-09-21T10:12:54.681Z,2.10
2022-09-21T10:15:25.544Z,1.70
2022-09-21T10:17:59.779Z,1.70
2022-09-21T10:20:30.852Z,1.40
2022-09-21T10:23:01.820Z,1.57
2022-09-21T10:25:31.039Z,1.60
2022-09-21T10:27:59.693Z,1.77
2022-09-21T10:30:34.805Z,1.83
2022-09-21T10:33:03.502Z,1.60
2022-09-21T10:35:32.432Z,1.70
2022-09-21T10:38:12.518Z,1.40
2022-09-21T10:40:41.562Z,1.40
2022-09-21T10:43:22.284Z,1.43
2022-09-21T10:45:56.120Z,1.30
2022-09-21T10:48:25.753Z,1.77
2022-09-21T10:50:54.929Z,1.60
2022-09-21T10:53:28.212Z,1.47
2022-09-21T10:56:15.111Z,1.00
2022-09-21T10:58:59.684Z,1.30
2022-09-21T11:01:30.212Z,1.30
2022-09-21T11:04:00.410Z,1.20
2022-09-21T11:06:31.472Z,1.10
2022-09-21T11:09:04.332Z,1.60
2022-09-21T11:11:48.175Z,1.40
2022-09-21T11:14:20.463Z,1.57
2022-09-21T11:16:52.440Z,1.70
2022-09-21T11:19:32.731Z,1.90
2022-09-21T11:22:03.733Z,2.30
2022-09-21T11:24:38.611Z,1.83
2022-09-21T11:27:10.135Z,2.20
2022-09-21T11:29:43.363Z,2.17
2022-09-21T11:32:19.201Z,2.40
2022-09-21T11:34:55.185Z,2.63
2022-09-21T11:37:30.876Z,2.10
2022-09-21T11:40:06.830Z,2.47
2022-09-21T11:42:46.687Z,1.80
2022-09-21T11:45:24.433Z,2.20
2022-09-21T11:48:00.468Z,2.17
2022-09-21T11:50:40.200Z,2.13
2022-09-21T11:53:16.073Z,2.30
2022-09-21T11:55:59.733Z,2.00
2022-09-21T11:58:32.092Z,1.43
2022-09-21T12:01:08.396Z,1.93
2022-09-21T12:03:46.336Z,1.50
2022-09-21T12:06:19.375Z,1.50
2022-09-21T12:08:56.066Z,1.10
2022-09-21T12:11:31.426Z,1.50
2022-09-21T12:14:03.053Z,1.23
2022-09-21T12:16:36.135Z,1.60
2022-09-21T12:19:07.012Z,1.60
2022-09-21T12:21:36.789Z,1.40
2022-09-21T12:24:06.933Z,1.40
2022-09-21T12:26:39.555Z,1.47
2022-09-21T12:29:13.867Z,1.60
2022-09-21T12:31:45.200Z,1.20
2022-09-21T12:34:16.837Z,1.20
2022-09-21T12:36:48.113Z,1.20
2022-09-21T12:39:20.347Z,1.40
2022-09-21T12:41:53.703Z,1.60
2022-09-21T12:44:24.954Z,1.67
2022-09-21T12:47:09.129Z,1.50
2022-09-21T12:49:40.339Z,1.40
2022-09-21T12:52:08.993Z,1.60
2022-09-21T12:54:44.554Z,1.60
2022-09-21T12:57:42.697Z,1.50
2022-09-21T13:00:11.403Z,1.53
2022-09-21T13:05:18.694Z,1.47
2022-09-21T13:08:01.007Z,1.20
2022-09-21T13:10:40.622Z,1.50
2022-09-21T13:13:18.617Z,1.30
2022-09-21T13:15:48.662Z,1.50
2022-09-21T13:18:19.135Z,1.60
2022-09-21T13:20:47.821Z,1.37
2022-09-21T13:23:17.975Z,1.50
2022-09-21T13:25:49.648Z,1.20
2022-09-21T13:28:24.037Z,1.33
2022-09-21T13:31:39.736Z,1.40
2022-09-21T13:34:18.491Z,1.40
2022-09-21T13:36:47.141Z,1.40
2022-09-21T13:39:19.301Z,1.23
2022-09-21T13:42:04.125Z,1.10
2022-09-21T13:44:46.187Z,1.70
2022-09-21T13:47:14.804Z,1.17
2022-09-21T13:49:54.073Z,1.30
2022-09-21T13:52:30.625Z,1.57
2022-09-21T13:55:00.552Z,1.57
2022-09-21T13:57:33.089Z,1.00
2022-09-21T14:00:16.528Z,1.30
2022-09-21T14:02:49.074Z,1.20
2022-09-21T14:05:25.311Z,1.20
2022-09-21T14:07:56.578Z,1.27
2022-09-21T14:10:25.297Z,1.23
2022-09-21T14:12:54.075Z,1.10
2022-09-21T14:15:36.849Z,1.20
2022-09-21T14:18:26.237Z,1.20
2022-09-21T14:21:09.668Z,1.40
2022-09-21T14:23:40.157Z,1.20
2022-09-21T14:26:22.116Z,1.00
2022-09-21T14:28:53.328Z,1.20
2022-09-21T14:31:26.488Z,1.37
2022-09-21T14:33:56.449Z,1.30
2022-09-21T14:36:31.162Z,1.37
2022-09-21T14:39:03.476Z,1.50
2022-09-21T14:41:44.746Z,1.50
2022-09-21T14:44:19.750Z,1.30
2022-09-21T14:47:01.005Z,1.40
2022-09-21T14:49:44.485Z,1.43
2022-09-21T14:52:27.897Z,1.40
2022-09-21T14:55:08.318Z,1.40
2022-09-21T14:57:48.405Z,1.10
2022-09-21T15:00:24.488Z,1.20
2022-09-21T15:03:03.628Z,1.60
2022-09-21T15:05:35.768Z,1.27
2022-09-21T15:08:49.065Z,1.50
2022-09-21T15:11:24.117Z,1.50
2022-09-21T15:14:14.925Z,1.30
2022-09-21T15:16:45.740Z,1.43
2022-09-21T15:19:16.168Z,1.60
2022-09-21T15:21:45.693Z,1.77
2022-09-21T15:24:22.077Z,1.30
2022-09-21T15:26:52.529Z,1.50
2022-09-21T15:29:24.409Z,1.40
2022-09-21T15:31:53.297Z,1.50
2022-09-21T15:34:23.232Z,1.40
2022-09-21T15:36:52.681Z,1.43
2022-09-21T15:39:25.283Z,1.30
2022-09-21T15:42:03.061Z,1.50
2022-09-21T15:44:34.371Z,1.40
2022-09-21T15:47:03.209Z,1.20
2022-09-21T15:49:31.936Z,1.50
2022-09-21T15:52:01.949Z,1.53
2022-09-21T15:54:33.215Z,1.40
2022-09-21T15:57:08.386Z,1.80
2022-09-21T15:59:37.234Z,1.53
2022-09-21T16:02:12.846Z,1.20
2022-09-21T16:04:49.191Z,1.00
2022-09-21T16:07:26.766Z,1.20
2022-09-21T16:09:55.315Z,0.90
2022-09-21T16:12:44.685Z,1.10
2022-09-21T16:15:24.357Z,1.00
2022-09-21T16:18:01.519Z,0.90
2022-09-21T16:20:40.557Z,1.00
2022-09-21T16:23:14.227Z,0.80
2022-09-21T16:25:43.302Z,1.60
2022-09-21T16:28:30.233Z,1.10
2022-09-21T16:31:00.302Z,1.00
2022-09-21T16:33:41.077Z,1.10
2022-09-21T16:36:29.479Z,1.07
2022-09-21T16:38:58.134Z,1.37
2022-09-21T16:41:33.520Z,1.30
2022-09-21T16:44:03.116Z,1.00
2022-09-21T16:46:34.125Z,1.00
2022-09-21T16:49:02.699Z,1.27
2022-09-21T16:51:31.631Z,1.07
2022-09-21T16:54:00.179Z,1.10
2022-09-21T16:56:28.682Z,1.20
2022-09-21T16:59:00.084Z,1.07
2022-09-21T17:01:28.903Z,1.10
2022-09-21T17:03:59.020Z,0.83
2022-09-21T17:06:27.981Z,1.00
2022-09-21T17:08:56.580Z,1.40
2022-09-21T17:11:25.140Z,1.57
2022-09-21T17:14:03.662Z,1.20
2022-09-21T17:16:32.201Z,1.40
2022-09-21T17:19:03.423Z,1.27
2022-09-21T17:21:31.960Z,1.10
2022-09-21T17:24:00.483Z,1.17
2022-09-21T17:26:29.007Z,1.00
2022-09-21T17:28:57.529Z,1.30
2022-09-21T17:31:28.008Z,1.37
2022-09-21T17:33:57.136Z,1.10
2022-09-21T17:36:27.063Z,1.23
2022-09-21T17:38:56.241Z,1.30
2022-09-21T17:41:26.544Z,1.13
2022-09-21T17:43:59.653Z,1.13
2022-09-21T17:46:32.527Z,1.00
2022-09-21T17:49:01.301Z,0.97
2022-09-21T17:51:49.248Z,1.13
2022-09-21T17:54:18.083Z,1.20
2022-09-21T17:56:49.717Z,1.10
2022-09-21T17:59:26.070Z,1.00
2022-09-21T18:01:59.108Z,1.20
2022-09-21T18:04:28.485Z,1.53
2022-09-21T18:06:58.479Z,1.70
2022-09-21T18:09:27.279Z,1.67
2022-09-21T18:12:03.193Z,1.60
2022-09-21T18:14:36.292Z,1.67
2022-09-21T18:17:12.759Z,1.60
2022-09-21T18:19:46.991Z,1.80
2022-09-21T18:22:23.872Z,1.60
2022-09-21T18:24:53.555Z,1.50
2022-09-21T18:27:23.429Z,1.50
2022-09-21T18:29:52.572Z,1.80
2022-09-21T18:32:28.892Z,1.87
2022-09-21T18:35:08.464Z,2.00
2022-09-21T18:37:43.374Z,2.00
2022-09-21T18:40:22.114Z,2.57
2022-09-21T18:42:55.681Z,2.20
2022-09-21T18:45:27.028Z,2.37
2022-09-21T18:48:04.903Z,2.00
2022-09-21T18:50:38.045Z,1.90
2022-09-21T18:53:11.524Z,1.70
2022-09-21T18:55:40.379Z,2.00
2022-09-21T18:58:09.983Z,1.80
2022-09-21T19:00:46.625Z,1.91
2022-09-21T19:03:18.448Z,1.90
2022-09-21T19:05:53.928Z,1.70
2022-09-21T19:08:27.004Z,2.20
2022-09-21T19:10:56.787Z,2.47
2022-09-21T19:13:33.353Z,3.13
2022-09-21T19:16:05.976Z,3.43
2022-09-21T19:18:39.767Z,3.00
2022-09-21T19:21:12.592Z,3.13
2022-09-21T19:23:55.477Z,2.43
2022-09-21T19:26:28.266Z,2.30
2022-09-21T19:29:05.000Z,2.20
2022-09-21T19:31:35.944Z,2.07
2022-09-21T19:34:11.785Z,2.73
2022-09-21T19:36:40.413Z,3.03
2022-09-21T19:39:11.595Z,3.10
2022-09-21T19:41:43.989Z,3.00
2022-09-21T19:44:17.499Z,2.90
2022-09-21T19:46:49.476Z,2.63
2022-09-21T19:49:18.921Z,2.80
2022-09-21T19:51:48.773Z,2.97
2022-09-21T19:54:37.332Z,2.33
2022-09-21T19:57:31.127Z,2.47
2022-09-21T20:00:00.106Z,2.87
2022-09-21T20:02:32.502Z,2.50
2022-09-21T20:05:03.456Z,2.90
2022-09-21T20:07:39.974Z,2.80
2022-09-21T20:10:14.865Z,2.73
2022-09-21T20:12:48.357Z,2.40
2022-09-21T20:15:19.043Z,2.50
2022-09-21T20:17:50.405Z,2.73
2022-09-21T20:20:21.561Z,2.80
2022-09-21T20:22:50.916Z,2.80
2022-09-21T20:25:22.969Z,3.20
2022-09-21T20:27:52.415Z,2.90
2022-09-21T20:30:22.173Z,3.60
2022-09-21T20:32:51.668Z,3.10
2022-09-21T20:35:22.360Z,3.10
2022-09-21T20:37:51.567Z,3.47
2022-09-21T20:40:24.813Z,3.87
2022-09-21T20:42:53.837Z,4.77
2022-09-21T20:45:22.657Z,5.57
2022-09-21T20:47:51.732Z,6.07
2022-09-21T20:50:20.560Z,7.00
2022-09-21T20:52:49.204Z,7.77
2022-09-21T20:55:20.243Z,7.37
2022-09-21T20:57:50.157Z,6.87
2022-09-21T21:00:19.340Z,5.90
2022-09-21T21:02:47.896Z,5.87
2022-09-21T21:05:18.464Z,5.43
2022-09-21T21:07:47.667Z,4.80
2022-09-21T21:10:17.325Z,4.47
2022-09-21T21:12:45.959Z,4.37
2022-09-21T21:15:15.941Z,3.93
2022-09-21T21:17:44.599Z,3.93
2022-09-21T21:20:13.793Z,4.60
2022-09-21T21:22:42.320Z,4.00
2022-09-21T21:25:11.360Z,4.13
2022-09-21T21:27:40.019Z,4.50
2022-09-21T21:30:09.754Z,5.20
2022-09-21T21:32:39.641Z,5.50
2022-09-21T21:35:08.505Z,5.30
2022-09-21T21:37:37.083Z,4.97
2022-09-21T21:40:06.052Z,5.13
2022-09-21T21:42:34.586Z,5.57
2022-09-21T21:45:03.293Z,4.73
2022-09-21T21:47:40.485Z,4.70
2022-09-21T21:50:11.470Z,4.30
2022-09-21T21:52:40.575Z,4.10
2022-09-21T21:55:10.076Z,3.63
2022-09-21T21:57:38.620Z,2.70
2022-09-21T22:00:08.532Z,2.73
2022-09-21T22:02:37.162Z,2.47
2022-09-21T22:05:05.908Z,2.60
2022-09-21T22:07:35.803Z,2.50
2022-09-21T22:10:04.387Z,2.50
2022-09-21T22:12:32.961Z,2.70
2022-09-21T22:15:02.637Z,2.50
2022-09-21T22:17:31.734Z,2.47
2022-09-21T22:20:00.259Z,2.40
2022-09-21T22:22:28.881Z,2.70
2022-09-21T22:24:58.872Z,2.10
2022-09-21T22:27:27.405Z,2.40
2022-09-21T22:29:58.862Z,2.20
2022-09-21T22:32:27.395Z,2.47
2022-09-21T22:34:55.910Z,2.47
2022-09-21T22:37:25.273Z,2.47
2022-09-21T22:39:53.827Z,2.90
2022-09-21T22:42:23.773Z,3.50
2022-09-21T22:44:52.275Z,3.47
2022-09-21T22:47:20.820Z,3.20
2022-09-21T22:49:49.356Z,3.17
2022-09-21T22:52:17.878Z,3.67
2022-09-21T22:54:46.425Z,4.07
2022-09-21T22:57:14.920Z,4.00
2022-09-21T22:59:44.776Z,3.60
2022-09-21T23:02:13.323Z,3.60
2022-09-21T23:04:41.866Z,4.20
2022-09-21T23:07:10.393Z,4.17
2022-09-21T23:09:38.927Z,4.17
2022-09-21T23:12:07.636Z,3.83
2022-09-21T23:14:36.220Z,3.73
2022-09-21T23:17:06.129Z,3.77
2022-09-21T23:19:35.250Z,3.77
2022-09-21T23:22:03.777Z,3.37
2022-09-21T23:24:32.400Z,3.40
2022-09-21T23:27:00.922Z,3.20
2022-09-21T23:29:29.443Z,3.07
2022-09-21T23:31:58.220Z,3.07
2022-09-21T23:34:28.121Z,3.70
2022-09-21T23:36:56.640Z,3.60
2022-09-21T23:39:25.268Z,4.07
2022-09-21T23:41:53.776Z,4.20
2022-09-21T23:44:22.301Z,3.90
2022-09-21T23:46:50.879Z,3.90
2022-09-21T23:49:19.464Z,3.93
2022-09-21T23:51:49.340Z,3.93
2022-09-21T23:54:19.469Z,4.63
2022-09-21T23:56:48.045Z,4.03
2022-09-21T23:59:16.607Z,3.53
